Terminal Aerodrome Forecast
Issued by NWS Sterling, VA

Current Version | Previous Version | Text Only | Print | Product List | Glossary Off
Versions: 1 2 3 4 5 6 7 8 9 10 11 12 13 14

000
FTUS41 KLWX 221500 AAA
TAFMRB
TAF AMD
KMRB 221554Z 2216/2312 31011G18KT P6SM SCT050
     FM222000 31008KT P6SM FEW250
     FM230300 33004KT P6SM SKC=

USA.gov is the U.S. government's official web portal to all federal, state and local government web resources and services.